Pagrindinis puslapis
METAR-TAF:

METAR-TAF

Oro uostai :

Charbinas, Kinija

platuma: 45-45N, ilguma: 126-46E, Aukštis: 143 m

Dabartinis oras

Ataskaita buvo paskelbta 53 minutes, ne 12:00 UTC
Vėjas 4 kt iš Vakarų
Temperatūra -7°C
Drėgmė 79%
Slėgis 1029 hPa
Matomumas: 7000 m

METAR: ZYHB 191200Z 27002MPS 7000 NSC M07/M10 Q1029 NOSIG

Laikas: 20:53 (12:53 UTC)

Prognozė

Ataskaita buvo paskelbta 3 valandos ir 52 minutes, ne 09:01 UTC
Prognozė galioja nuo 19 metu 12 UTC su 20 metu 12 UTC
Vėjas 8 kt iš Pietvakarių
Matomumas: 6000 m
Mažai debesys ne aukštis 3300 ft
Laikinai
nuo 19 metu 21 UTC su 20 metu 01 UTC
Matomumas: 1000 m
rūkana

TAF: ZYHB 190901Z 1912/2012 23004MPS 6000 FEW033 TXM03/2006Z TNM18/1921Z TEMPO 1921/2001 1000 BR

Orai ataskaitas ir orų prognozės (METAR, TAF).

turimą stotys yra geltonos ir raudonos taškus žemėlapyje.

Perkelti pele per norėdami pamatyti stoties vardą.

Tada spustelėkite, norėdami matyti oro stebėjimo ir prognozės.

Norėdami pakeisti žemėlapį: spustelėkite ant žalios mygtukų su juodo kryžiaus žemyn,; žalią mygtuką su brūkšneliu, jei norite nutolinti; arba žalių rodyklių gretimoms žemėlapius.


METAR-TAF: